sensor_id;sensor_type;location;lat;lon;timestamp;temperature;humidity
45849;DHT22;31567;54.600;9.842;2022-11-20T00:01:48;3.80;99.90
45849;DHT22;31567;54.600;9.842;2022-11-20T00:05:27;3.80;99.90
45849;DHT22;31567;54.600;9.842;2022-11-20T00:09:09;3.70;99.90
45849;DHT22;31567;54.600;9.842;2022-11-20T00:12:49;3.70;99.90
45849;DHT22;31567;54.600;9.842;2022-11-20T00:16:31;3.60;99.90
45849;DHT22;31567;54.600;9.842;2022-11-20T00:20:11;3.60;99.90
45849;DHT22;31567;54.600;9.842;2022-11-20T00:23:52;3.60;99.90
45849;DHT22;31567;54.600;9.842;2022-11-20T00:27:32;3.50;99.90
45849;DHT22;31567;54.600;9.842;2022-11-20T00:31:14;3.50;99.90
45849;DHT22;31567;54.600;9.842;2022-11-20T00:34:53;3.60;99.90
45849;DHT22;31567;54.600;9.842;2022-11-20T00:38:33;3.50;99.90
45849;DHT22;31567;54.600;9.842;2022-11-20T00:42:13;3.50;99.90
45849;DHT22;31567;54.600;9.842;2022-11-20T00:46:04;3.60;99.90
45849;DHT22;31567;54.600;9.842;2022-11-20T00:49:44;3.60;99.90
45849;DHT22;31567;54.600;9.842;2022-11-20T00:53:24;3.60;99.90
45849;DHT22;31567;54.600;9.842;2022-11-20T00:57:04;3.70;99.90
45849;DHT22;31567;54.600;9.842;2022-11-20T01:00:43;3.60;99.90
45849;DHT22;31567;54.600;9.842;2022-11-20T01:04:23;3.70;99.90
45849;DHT22;31567;54.600;9.842;2022-11-20T01:08:03;3.70;99.90
45849;DHT22;31567;54.600;9.842;2022-11-20T01:11:44;3.70;99.90
45849;DHT22;31567;54.600;9.842;2022-11-20T01:15:24;3.70;99.90
45849;DHT22;31567;54.600;9.842;2022-11-20T01:19:06;3.60;99.90
45849;DHT22;31567;54.600;9.842;2022-11-20T01:22:46;3.60;99.90
45849;DHT22;31567;54.600;9.842;2022-11-20T01:26:29;3.60;99.90
45849;DHT22;31567;54.600;9.842;2022-11-20T01:30:09;3.70;99.90
45849;DHT22;31567;54.600;9.842;2022-11-20T01:33:51;3.80;99.90
45849;DHT22;31567;54.600;9.842;2022-11-20T01:37:31;3.80;99.90
45849;DHT22;31567;54.600;9.842;2022-11-20T01:41:12;3.90;99.90
45849;DHT22;31567;54.600;9.842;2022-11-20T01:45:50;3.90;99.90
45849;DHT22;31567;54.600;9.842;2022-11-20T01:49:34;4.00;99.90
45849;DHT22;31567;54.600;9.842;2022-11-20T01:53:18;3.90;99.90
45849;DHT22;31567;54.600;9.842;2022-11-20T01:57:00;4.00;99.90
45849;DHT22;31567;54.600;9.842;2022-11-20T02:00:41;3.90;99.90
45849;DHT22;31567;54.600;9.842;2022-11-20T02:04:21;4.00;99.90
45849;DHT22;31567;54.600;9.842;2022-11-20T02:08:03;3.90;99.90
45849;DHT22;31567;54.600;9.842;2022-11-20T02:11:43;3.90;99.90
45849;DHT22;31567;54.600;9.842;2022-11-20T02:15:23;3.90;99.90
45849;DHT22;31567;54.600;9.842;2022-11-20T02:19:06;3.90;99.90
45849;DHT22;31567;54.600;9.842;2022-11-20T02:22:59;3.80;99.90
45849;DHT22;31567;54.600;9.842;2022-11-20T02:26:53;3.80;99.90
45849;DHT22;31567;54.600;9.842;2022-11-20T02:30:34;3.80;99.90
45849;DHT22;31567;54.600;9.842;2022-11-20T02:34:13;3.80;99.90
45849;DHT22;31567;54.600;9.842;2022-11-20T02:37:55;3.70;99.90
45849;DHT22;31567;54.600;9.842;2022-11-20T02:41:36;3.70;99.90
45849;DHT22;31567;54.600;9.842;2022-11-20T02:45:16;3.70;99.90
45849;DHT22;31567;54.600;9.842;2022-11-20T02:48:56;3.70;99.90
45849;DHT22;31567;54.600;9.842;2022-11-20T02:52:35;3.60;99.90
45849;DHT22;31567;54.600;9.842;2022-11-20T02:56:15;3.60;99.90
45849;DHT22;31567;54.600;9.842;2022-11-20T02:59:55;3.50;99.90
45849;DHT22;31567;54.600;9.842;2022-11-20T03:03:35;3.50;99.90
45849;DHT22;31567;54.600;9.842;2022-11-20T03:07:14;3.50;99.90
45849;DHT22;31567;54.600;9.842;2022-11-20T03:10:54;3.50;99.90
45849;DHT22;31567;54.600;9.842;2022-11-20T03:14:34;3.50;99.90
45849;DHT22;31567;54.600;9.842;2022-11-20T03:18:13;3.50;99.90
45849;DHT22;31567;54.600;9.842;2022-11-20T03:21:54;3.50;99.90
45849;DHT22;31567;54.600;9.842;2022-11-20T03:25:33;3.50;99.90
45849;DHT22;31567;54.600;9.842;2022-11-20T03:29:13;3.50;99.90
45849;DHT22;31567;54.600;9.842;2022-11-20T03:32:53;3.60;99.90
45849;DHT22;31567;54.600;9.842;2022-11-20T03:36:33;3.60;99.90
45849;DHT22;31567;54.600;9.842;2022-11-20T03:40:13;3.60;99.90
45849;DHT22;31567;54.600;9.842;2022-11-20T03:44:04;3.70;99.90
45849;DHT22;31567;54.600;9.842;2022-11-20T03:47:44;3.70;99.90
45849;DHT22;31567;54.600;9.842;2022-11-20T03:51:26;3.60;99.90
45849;DHT22;31567;54.600;9.842;2022-11-20T03:55:07;3.60;99.90
45849;DHT22;31567;54.600;9.842;2022-11-20T03:58:46;3.50;99.90
45849;DHT22;31567;54.600;9.842;2022-11-20T04:02:26;3.60;99.90
45849;DHT22;31567;54.600;9.842;2022-11-20T04:06:08;3.80;99.90
45849;DHT22;31567;54.600;9.842;2022-11-20T04:09:48;3.70;99.90
45849;DHT22;31567;54.600;9.842;2022-11-20T04:13:27;3.70;99.90
45849;DHT22;31567;54.600;9.842;2022-11-20T04:17:07;3.70;99.90
45849;DHT22;31567;54.600;9.842;2022-11-20T04:20:47;3.70;99.90
45849;DHT22;31567;54.600;9.842;2022-11-20T04:24:26;3.60;99.90
45849;DHT22;31567;54.600;9.842;2022-11-20T04:28:06;3.70;99.90
45849;DHT22;31567;54.600;9.842;2022-11-20T04:31:45;3.60;99.90
45849;DHT22;31567;54.600;9.842;2022-11-20T04:35:25;3.60;99.90
45849;DHT22;31567;54.600;9.842;2022-11-20T04:39:05;3.50;99.90
45849;DHT22;31567;54.600;9.842;2022-11-20T04:42:45;3.50;99.90
45849;DHT22;31567;54.600;9.842;2022-11-20T04:46:27;3.50;99.90
45849;DHT22;31567;54.600;9.842;2022-11-20T04:50:07;3.50;99.90
45849;DHT22;31567;54.600;9.842;2022-11-20T04:53:46;3.60;99.90
45849;DHT22;31567;54.600;9.842;2022-11-20T04:57:26;3.50;99.90
45849;DHT22;31567;54.600;9.842;2022-11-20T05:01:17;3.50;99.90
45849;DHT22;31567;54.600;9.842;2022-11-20T05:04:57;3.50;99.90
45849;DHT22;31567;54.600;9.842;2022-11-20T05:08:37;3.60;99.90
45849;DHT22;31567;54.600;9.842;2022-11-20T05:12:16;3.60;99.90
45849;DHT22;31567;54.600;9.842;2022-11-20T05:16:05;3.60;99.90
45849;DHT22;31567;54.600;9.842;2022-11-20T05:19:45;3.70;99.90
45849;DHT22;31567;54.600;9.842;2022-11-20T05:23:25;3.80;99.90
45849;DHT22;31567;54.600;9.842;2022-11-20T05:27:05;3.80;99.90
45849;DHT22;31567;54.600;9.842;2022-11-20T05:30:44;3.80;99.90
45849;DHT22;31567;54.600;9.842;2022-11-20T05:34:24;3.80;99.90
45849;DHT22;31567;54.600;9.842;2022-11-20T05:38:03;3.80;99.90
45849;DHT22;31567;54.600;9.842;2022-11-20T05:41:43;3.80;99.90
45849;DHT22;31567;54.600;9.842;2022-11-20T05:45:22;3.80;99.90
45849;DHT22;31567;54.600;9.842;2022-11-20T05:49:02;3.80;99.90
45849;DHT22;31567;54.600;9.842;2022-11-20T05:52:41;3.80;99.90
45849;DHT22;31567;54.600;9.842;2022-11-20T05:56:21;3.80;99.90
45849;DHT22;31567;54.600;9.842;2022-11-20T06:00:02;3.70;99.90
45849;DHT22;31567;54.600;9.842;2022-11-20T06:03:43;3.70;99.90
45849;DHT22;31567;54.600;9.842;2022-11-20T06:07:25;3.70;99.90
45849;DHT22;31567;54.600;9.842;2022-11-20T06:11:06;3.70;99.90
45849;DHT22;31567;54.600;9.842;2022-11-20T06:14:46;3.60;99.90
45849;DHT22;31567;54.600;9.842;2022-11-20T06:18:27;3.60;99.90
45849;DHT22;31567;54.600;9.842;2022-11-20T06:22:10;3.60;99.90
45849;DHT22;31567;54.600;9.842;2022-11-20T06:25:49;3.60;99.90
45849;DHT22;31567;54.600;9.842;2022-11-20T06:29:29;3.60;99.90
45849;DHT22;31567;54.600;9.842;2022-11-20T06:33:08;3.60;99.90
45849;DHT22;31567;54.600;9.842;2022-11-20T06:36:48;3.60;99.90
45849;DHT22;31567;54.600;9.842;2022-11-20T06:40:27;3.60;99.90
45849;DHT22;31567;54.600;9.842;2022-11-20T06:44:07;3.60;99.90
45849;DHT22;31567;54.600;9.842;2022-11-20T06:47:46;3.60;99.90
45849;DHT22;31567;54.600;9.842;2022-11-20T06:51:26;3.60;99.90
45849;DHT22;31567;54.600;9.842;2022-11-20T06:55:06;3.70;99.90
45849;DHT22;31567;54.600;9.842;2022-11-20T06:58:45;3.60;99.90
45849;DHT22;31567;54.600;9.842;2022-11-20T07:02:25;3.70;99.90
45849;DHT22;31567;54.600;9.842;2022-11-20T07:06:05;3.80;99.90
45849;DHT22;31567;54.600;9.842;2022-11-20T07:09:45;3.80;99.90
45849;DHT22;31567;54.600;9.842;2022-11-20T07:13:25;3.70;99.90
45849;DHT22;31567;54.600;9.842;2022-11-20T07:17:04;3.60;99.90
45849;DHT22;31567;54.600;9.842;2022-11-20T07:20:44;3.50;99.90
45849;DHT22;31567;54.600;9.842;2022-11-20T07:24:24;3.40;99.90
45849;DHT22;31567;54.600;9.842;2022-11-20T07:28:03;3.30;99.90
45849;DHT22;31567;54.600;9.842;2022-11-20T07:31:43;3.30;99.90
45849;DHT22;31567;54.600;9.842;2022-11-20T07:35:24;3.20;99.90
45849;DHT22;31567;54.600;9.842;2022-11-20T07:39:04;3.20;99.90
45849;DHT22;31567;54.600;9.842;2022-11-20T07:42:50;3.20;99.90
45849;DHT22;31567;54.600;9.842;2022-11-20T07:46:30;3.20;99.90
45849;DHT22;31567;54.600;9.842;2022-11-20T07:50:11;3.30;99.90
45849;DHT22;31567;54.600;9.842;2022-11-20T07:53:51;3.40;99.90
45849;DHT22;31567;54.600;9.842;2022-11-20T07:57:31;3.40;99.90
45849;DHT22;31567;54.600;9.842;2022-11-20T08:01:10;3.50;99.90
45849;DHT22;31567;54.600;9.842;2022-11-20T08:04:50;3.50;99.90
45849;DHT22;31567;54.600;9.842;2022-11-20T08:08:30;3.50;99.90
45849;DHT22;31567;54.600;9.842;2022-11-20T08:12:17;3.50;99.90
45849;DHT22;31567;54.600;9.842;2022-11-20T08:16:16;3.60;99.90
45849;DHT22;31567;54.600;9.842;2022-11-20T08:19:55;3.60;99.90
45849;DHT22;31567;54.600;9.842;2022-11-20T08:23:35;3.70;99.90
45849;DHT22;31567;54.600;9.842;2022-11-20T08:27:15;3.80;99.90
45849;DHT22;31567;54.600;9.842;2022-11-20T08:31:01;4.00;99.90
45849;DHT22;31567;54.600;9.842;2022-11-20T08:34:41;4.00;99.90
45849;DHT22;31567;54.600;9.842;2022-11-20T08:38:21;4.00;99.90
45849;DHT22;31567;54.600;9.842;2022-11-20T08:42:00;4.00;99.60
45849;DHT22;31567;54.600;9.842;2022-11-20T08:45:40;3.90;99.50
45849;DHT22;31567;54.600;9.842;2022-11-20T08:49:20;4.00;99.40
45849;DHT22;31567;54.600;9.842;2022-11-20T08:53:04;3.80;99.20
45849;DHT22;31567;54.600;9.842;2022-11-20T08:56:44;3.80;99.40
45849;DHT22;31567;54.600;9.842;2022-11-20T09:00:23;3.70;99.00
45849;DHT22;31567;54.600;9.842;2022-11-20T09:04:03;3.70;99.00
45849;DHT22;31567;54.600;9.842;2022-11-20T09:07:44;3.70;99.00
45849;DHT22;31567;54.600;9.842;2022-11-20T09:11:23;3.70;99.00
45849;DHT22;31567;54.600;9.842;2022-11-20T09:15:03;3.80;99.10
45849;DHT22;31567;54.600;9.842;2022-11-20T09:18:43;3.90;99.10
45849;DHT22;31567;54.600;9.842;2022-11-20T09:22:22;3.90;99.00
45849;DHT22;31567;54.600;9.842;2022-11-20T09:26:06;4.00;99.10
45849;DHT22;31567;54.600;9.842;2022-11-20T09:29:46;4.00;98.70
45849;DHT22;31567;54.600;9.842;2022-11-20T09:33:26;4.10;98.40
45849;DHT22;31567;54.600;9.842;2022-11-20T09:37:05;4.20;98.20
45849;DHT22;31567;54.600;9.842;2022-11-20T09:40:51;4.20;98.10
45849;DHT22;31567;54.600;9.842;2022-11-20T09:48:37;4.50;97.90
45849;DHT22;31567;54.600;9.842;2022-11-20T09:56:02;4.70;97.60
45849;DHT22;31567;54.600;9.842;2022-11-20T10:03:41;4.40;97.10
45849;DHT22;31567;54.600;9.842;2022-11-20T10:07:40;4.30;97.20
45849;DHT22;31567;54.600;9.842;2022-11-20T10:31:11;4.70;97.90
45849;DHT22;31567;54.600;9.842;2022-11-20T10:35:03;4.70;97.50
45849;DHT22;31567;54.600;9.842;2022-11-20T10:38:48;4.70;97.50
45849;DHT22;31567;54.600;9.842;2022-11-20T10:42:43;4.80;97.80
45849;DHT22;31567;54.600;9.842;2022-11-20T10:46:24;4.80;97.50
45849;DHT22;31567;54.600;9.842;2022-11-20T10:50:05;4.80;97.50
45849;DHT22;31567;54.600;9.842;2022-11-20T10:54:17;4.60;97.20
45849;DHT22;31567;54.600;9.842;2022-11-20T10:58:17;4.50;97.30
45849;DHT22;31567;54.600;9.842;2022-11-20T11:01:59;4.40;97.50
45849;DHT22;31567;54.600;9.842;2022-11-20T11:05:43;4.50;97.80
45849;DHT22;31567;54.600;9.842;2022-11-20T11:09:32;4.60;98.00
45849;DHT22;31567;54.600;9.842;2022-11-20T11:13:27;4.70;98.30
45849;DHT22;31567;54.600;9.842;2022-11-20T11:17:19;4.80;97.50
45849;DHT22;31567;54.600;9.842;2022-11-20T11:21:01;4.90;97.30
45849;DHT22;31567;54.600;9.842;2022-11-20T11:24:51;4.90;96.90
45849;DHT22;31567;54.600;9.842;2022-11-20T11:28:32;5.00;96.60
45849;DHT22;31567;54.600;9.842;2022-11-20T11:32:19;5.00;96.30
45849;DHT22;31567;54.600;9.842;2022-11-20T11:36:03;5.20;96.10
45849;DHT22;31567;54.600;9.842;2022-11-20T11:39:44;5.10;95.20
45849;DHT22;31567;54.600;9.842;2022-11-20T11:43:28;5.30;95.30
45849;DHT22;31567;54.600;9.842;2022-11-20T11:51:11;5.30;94.70
45849;DHT22;31567;54.600;9.842;2022-11-20T11:54:56;5.40;94.20
45849;DHT22;31567;54.600;9.842;2022-11-20T11:58:46;5.40;94.10
45849;DHT22;31567;54.600;9.842;2022-11-20T12:06:25;5.50;93.80
45849;DHT22;31567;54.600;9.842;2022-11-20T12:10:17;5.50;93.90
45849;DHT22;31567;54.600;9.842;2022-11-20T12:14:03;5.50;94.00
45849;DHT22;31567;54.600;9.842;2022-11-20T12:17:43;5.50;93.30
45849;DHT22;31567;54.600;9.842;2022-11-20T12:25:24;5.50;92.30
45849;DHT22;31567;54.600;9.842;2022-11-20T12:42:16;6.10;92.60
45849;DHT22;31567;54.600;9.842;2022-11-20T12:50:49;6.40;92.00
45849;DHT22;31567;54.600;9.842;2022-11-20T12:58:55;6.00;92.10
45849;DHT22;31567;54.600;9.842;2022-11-20T13:06:40;5.60;92.90
45849;DHT22;31567;54.600;9.842;2022-11-20T13:18:02;5.70;93.50
45849;DHT22;31567;54.600;9.842;2022-11-20T13:21:45;5.90;93.40
45849;DHT22;31567;54.600;9.842;2022-11-20T13:25:33;6.10;93.30
45849;DHT22;31567;54.600;9.842;2022-11-20T13:29:18;6.30;92.90
45849;DHT22;31567;54.600;9.842;2022-11-20T13:33:09;6.40;91.80
45849;DHT22;31567;54.600;9.842;2022-11-20T13:37:02;6.40;91.10
45849;DHT22;31567;54.600;9.842;2022-11-20T13:41:00;6.40;91.00
45849;DHT22;31567;54.600;9.842;2022-11-20T13:45:09;6.60;91.00
45849;DHT22;31567;54.600;9.842;2022-11-20T13:48:50;6.60;90.90
45849;DHT22;31567;54.600;9.842;2022-11-20T14:00:29;6.60;90.40
45849;DHT22;31567;54.600;9.842;2022-11-20T14:04:09;6.50;90.40
45849;DHT22;31567;54.600;9.842;2022-11-20T14:07:54;6.60;90.70
45849;DHT22;31567;54.600;9.842;2022-11-20T14:11:34;6.70;90.60
45849;DHT22;31567;54.600;9.842;2022-11-20T14:15:30;6.70;90.80
45849;DHT22;31567;54.600;9.842;2022-11-20T14:22:59;6.40;90.40
45849;DHT22;31567;54.600;9.842;2022-11-20T14:26:43;6.40;90.60
45849;DHT22;31567;54.600;9.842;2022-11-20T14:30:37;6.40;90.10
45849;DHT22;31567;54.600;9.842;2022-11-20T14:34:25;6.40;90.00
45849;DHT22;31567;54.600;9.842;2022-11-20T14:38:11;6.30;90.20
45849;DHT22;31567;54.600;9.842;2022-11-20T14:41:52;6.20;90.40
45849;DHT22;31567;54.600;9.842;2022-11-20T14:45:32;6.10;90.20
45849;DHT22;31567;54.600;9.842;2022-11-20T14:49:12;5.80;90.10
45849;DHT22;31567;54.600;9.842;2022-11-20T14:53:01;5.70;90.30
45849;DHT22;31567;54.600;9.842;2022-11-20T14:56:41;5.60;90.50
45849;DHT22;31567;54.600;9.842;2022-11-20T15:00:22;5.50;90.70
45849;DHT22;31567;54.600;9.842;2022-11-20T15:04:09;5.40;90.90
45849;DHT22;31567;54.600;9.842;2022-11-20T15:08:03;5.30;91.20
45849;DHT22;31567;54.600;9.842;2022-11-20T15:11:59;5.20;91.30
45849;DHT22;31567;54.600;9.842;2022-11-20T15:19:27;4.90;91.70
45849;DHT22;31567;54.600;9.842;2022-11-20T15:23:11;4.80;91.80
45849;DHT22;31567;54.600;9.842;2022-11-20T15:26:51;4.90;91.80
45849;DHT22;31567;54.600;9.842;2022-11-20T15:30:30;4.80;91.70
45849;DHT22;31567;54.600;9.842;2022-11-20T15:34:16;4.60;91.70
45849;DHT22;31567;54.600;9.842;2022-11-20T15:37:56;4.50;91.90
45849;DHT22;31567;54.600;9.842;2022-11-20T15:41:36;4.40;92.20
45849;DHT22;31567;54.600;9.842;2022-11-20T15:45:15;4.30;92.30
45849;DHT22;31567;54.600;9.842;2022-11-20T15:48:56;4.30;92.40
45849;DHT22;31567;54.600;9.842;2022-11-20T15:52:36;4.20;92.50
45849;DHT22;31567;54.600;9.842;2022-11-20T15:56:15;4.20;92.50
45849;DHT22;31567;54.600;9.842;2022-11-20T15:59:55;4.10;92.70
45849;DHT22;31567;54.600;9.842;2022-11-20T16:03:34;4.00;92.50
45849;DHT22;31567;54.600;9.842;2022-11-20T16:07:14;4.00;92.50
45849;DHT22;31567;54.600;9.842;2022-11-20T16:10:54;3.90;92.60
45849;DHT22;31567;54.600;9.842;2022-11-20T16:14:33;3.80;92.70
45849;DHT22;31567;54.600;9.842;2022-11-20T16:18:32;3.70;92.90
45849;DHT22;31567;54.600;9.842;2022-11-20T16:22:12;3.60;93.20
45849;DHT22;31567;54.600;9.842;2022-11-20T16:25:51;3.50;93.30
45849;DHT22;31567;54.600;9.842;2022-11-20T16:29:31;3.40;93.40
45849;DHT22;31567;54.600;9.842;2022-11-20T16:33:12;3.50;93.50
45849;DHT22;31567;54.600;9.842;2022-11-20T16:36:52;3.50;93.60
45849;DHT22;31567;54.600;9.842;2022-11-20T16:40:32;3.50;93.50
45849;DHT22;31567;54.600;9.842;2022-11-20T16:44:11;3.50;93.60
45849;DHT22;31567;54.600;9.842;2022-11-20T16:47:51;3.40;93.50
45849;DHT22;31567;54.600;9.842;2022-11-20T16:51:34;3.40;93.50
45849;DHT22;31567;54.600;9.842;2022-11-20T16:55:13;3.50;93.40
45849;DHT22;31567;54.600;9.842;2022-11-20T16:58:56;3.50;93.20
45849;DHT22;31567;54.600;9.842;2022-11-20T17:02:35;3.50;93.20
45849;DHT22;31567;54.600;9.842;2022-11-20T17:06:19;3.50;93.20
45849;DHT22;31567;54.600;9.842;2022-11-20T17:09:59;3.50;93.00
45849;DHT22;31567;54.600;9.842;2022-11-20T17:13:39;3.40;92.90
45849;DHT22;31567;54.600;9.842;2022-11-20T17:17:19;3.30;92.90
45849;DHT22;31567;54.600;9.842;2022-11-20T17:20:59;3.10;93.00
45849;DHT22;31567;54.600;9.842;2022-11-20T17:24:42;3.10;93.30
45849;DHT22;31567;54.600;9.842;2022-11-20T17:28:22;3.00;93.30
45849;DHT22;31567;54.600;9.842;2022-11-20T17:32:02;2.90;93.50
45849;DHT22;31567;54.600;9.842;2022-11-20T17:35:41;3.00;93.60
45849;DHT22;31567;54.600;9.842;2022-11-20T17:39:21;2.90;93.60
45849;DHT22;31567;54.600;9.842;2022-11-20T17:43:00;2.80;93.70
45849;DHT22;31567;54.600;9.842;2022-11-20T17:46:40;2.70;93.70
45849;DHT22;31567;54.600;9.842;2022-11-20T17:50:20;2.70;93.80
45849;DHT22;31567;54.600;9.842;2022-11-20T17:54:01;2.60;93.90
45849;DHT22;31567;54.600;9.842;2022-11-20T17:57:41;2.50;94.00
45849;DHT22;31567;54.600;9.842;2022-11-20T18:01:34;2.50;94.00
45849;DHT22;31567;54.600;9.842;2022-11-20T18:05:14;2.50;94.10
45849;DHT22;31567;54.600;9.842;2022-11-20T18:08:56;2.50;94.00
45849;DHT22;31567;54.600;9.842;2022-11-20T18:12:36;2.40;93.90
45849;DHT22;31567;54.600;9.842;2022-11-20T18:16:15;2.40;93.90
45849;DHT22;31567;54.600;9.842;2022-11-20T18:19:55;2.30;94.00
45849;DHT22;31567;54.600;9.842;2022-11-20T18:23:34;2.20;94.10
45849;DHT22;31567;54.600;9.842;2022-11-20T18:27:16;2.10;94.30
45849;DHT22;31567;54.600;9.842;2022-11-20T18:30:56;2.00;94.40
45849;DHT22;31567;54.600;9.842;2022-11-20T18:34:36;1.90;94.50
45849;DHT22;31567;54.600;9.842;2022-11-20T18:38:15;1.90;94.70
45849;DHT22;31567;54.600;9.842;2022-11-20T18:41:55;1.80;94.70
45849;DHT22;31567;54.600;9.842;2022-11-20T18:46:01;1.70;94.80
45849;DHT22;31567;54.600;9.842;2022-11-20T18:49:42;1.70;94.90
45849;DHT22;31567;54.600;9.842;2022-11-20T18:53:24;1.70;95.00
45849;DHT22;31567;54.600;9.842;2022-11-20T18:57:04;1.60;95.00
45849;DHT22;31567;54.600;9.842;2022-11-20T19:00:43;1.50;95.00
45849;DHT22;31567;54.600;9.842;2022-11-20T19:04:23;1.50;95.10
45849;DHT22;31567;54.600;9.842;2022-11-20T19:08:03;1.40;95.20
45849;DHT22;31567;54.600;9.842;2022-11-20T19:11:42;1.50;95.40
45849;DHT22;31567;54.600;9.842;2022-11-20T19:15:22;1.50;95.40
45849;DHT22;31567;54.600;9.842;2022-11-20T19:19:03;1.60;95.40
45849;DHT22;31567;54.600;9.842;2022-11-20T19:22:43;1.60;95.40
45849;DHT22;31567;54.600;9.842;2022-11-20T19:26:23;1.60;95.50
45849;DHT22;31567;54.600;9.842;2022-11-20T19:30:03;1.70;95.60
45849;DHT22;31567;54.600;9.842;2022-11-20T19:33:43;1.70;95.60
45849;DHT22;31567;54.600;9.842;2022-11-20T19:37:22;1.80;95.60
45849;DHT22;31567;54.600;9.842;2022-11-20T19:41:04;1.80;95.40
45849;DHT22;31567;54.600;9.842;2022-11-20T19:44:44;1.80;95.50
45849;DHT22;31567;54.600;9.842;2022-11-20T19:48:23;1.70;95.60
45849;DHT22;31567;54.600;9.842;2022-11-20T19:52:03;1.80;95.70
45849;DHT22;31567;54.600;9.842;2022-11-20T19:55:54;1.70;95.80
45849;DHT22;31567;54.600;9.842;2022-11-20T19:59:34;1.80;95.90
45849;DHT22;31567;54.600;9.842;2022-11-20T20:03:13;1.80;95.80
45849;DHT22;31567;54.600;9.842;2022-11-20T20:06:53;1.90;95.80
45849;DHT22;31567;54.600;9.842;2022-11-20T20:10:33;1.90;95.70
45849;DHT22;31567;54.600;9.842;2022-11-20T20:14:14;1.80;95.70
45849;DHT22;31567;54.600;9.842;2022-11-20T20:17:54;1.80;95.70
45849;DHT22;31567;54.600;9.842;2022-11-20T20:21:34;1.70;95.70
45849;DHT22;31567;54.600;9.842;2022-11-20T20:25:14;1.70;95.90
45849;DHT22;31567;54.600;9.842;2022-11-20T20:28:54;1.70;96.00
45849;DHT22;31567;54.600;9.842;2022-11-20T20:32:34;1.70;96.10
45849;DHT22;31567;54.600;9.842;2022-11-20T20:36:16;1.60;96.10
45849;DHT22;31567;54.600;9.842;2022-11-20T20:39:55;1.60;96.20
45849;DHT22;31567;54.600;9.842;2022-11-20T20:43:35;1.60;96.20
45849;DHT22;31567;54.600;9.842;2022-11-20T20:47:37;1.60;96.10
45849;DHT22;31567;54.600;9.842;2022-11-20T20:51:17;1.50;96.20
45849;DHT22;31567;54.600;9.842;2022-11-20T20:54:57;1.50;96.20
45849;DHT22;31567;54.600;9.842;2022-11-20T20:58:36;1.50;96.30
45849;DHT22;31567;54.600;9.842;2022-11-20T21:02:16;1.40;96.20
45849;DHT22;31567;54.600;9.842;2022-11-20T21:05:56;1.30;96.20
45849;DHT22;31567;54.600;9.842;2022-11-20T21:09:36;1.20;96.30
45849;DHT22;31567;54.600;9.842;2022-11-20T21:13:16;1.10;96.40
45849;DHT22;31567;54.600;9.842;2022-11-20T21:16:55;1.20;96.60
45849;DHT22;31567;54.600;9.842;2022-11-20T21:20:38;1.10;96.60
45849;DHT22;31567;54.600;9.842;2022-11-20T21:24:36;1.10;96.60
45849;DHT22;31567;54.600;9.842;2022-11-20T21:28:15;1.10;96.60
45849;DHT22;31567;54.600;9.842;2022-11-20T21:31:56;1.10;96.70
45849;DHT22;31567;54.600;9.842;2022-11-20T21:35:36;1.10;96.80
45849;DHT22;31567;54.600;9.842;2022-11-20T21:39:17;1.10;96.90
45849;DHT22;31567;54.600;9.842;2022-11-20T21:42:59;1.10;97.00
45849;DHT22;31567;54.600;9.842;2022-11-20T21:46:43;1.20;97.00
45849;DHT22;31567;54.600;9.842;2022-11-20T21:50:23;1.20;97.10
45849;DHT22;31567;54.600;9.842;2022-11-20T21:54:03;1.20;97.10
45849;DHT22;31567;54.600;9.842;2022-11-20T21:57:43;1.20;97.20
45849;DHT22;31567;54.600;9.842;2022-11-20T22:01:26;1.20;97.40
45849;DHT22;31567;54.600;9.842;2022-11-20T22:05:07;1.20;97.10
45849;DHT22;31567;54.600;9.842;2022-11-20T22:08:46;1.20;97.10
45849;DHT22;31567;54.600;9.842;2022-11-20T22:12:27;1.10;97.20
45849;DHT22;31567;54.600;9.842;2022-11-20T22:16:07;1.20;97.40
45849;DHT22;31567;54.600;9.842;2022-11-20T22:19:46;1.10;97.30
45849;DHT22;31567;54.600;9.842;2022-11-20T22:23:26;1.20;97.50
45849;DHT22;31567;54.600;9.842;2022-11-20T22:27:05;1.20;97.50
45849;DHT22;31567;54.600;9.842;2022-11-20T22:30:45;1.20;97.60
45849;DHT22;31567;54.600;9.842;2022-11-20T22:34:26;1.10;97.50
45849;DHT22;31567;54.600;9.842;2022-11-20T22:38:05;1.20;97.40
45849;DHT22;31567;54.600;9.842;2022-11-20T22:41:46;1.10;97.40
45849;DHT22;31567;54.600;9.842;2022-11-20T22:45:25;1.10;97.40
45849;DHT22;31567;54.600;9.842;2022-11-20T22:49:06;1.10;97.50
45849;DHT22;31567;54.600;9.842;2022-11-20T22:52:49;1.10;97.60
45849;DHT22;31567;54.600;9.842;2022-11-20T22:56:29;1.10;97.60
45849;DHT22;31567;54.600;9.842;2022-11-20T23:00:09;1.00;97.60
45849;DHT22;31567;54.600;9.842;2022-11-20T23:03:50;1.00;97.70
45849;DHT22;31567;54.600;9.842;2022-11-20T23:07:30;1.00;97.70
45849;DHT22;31567;54.600;9.842;2022-11-20T23:11:16;1.00;97.70
45849;DHT22;31567;54.600;9.842;2022-11-20T23:14:56;0.90;97.70
45849;DHT22;31567;54.600;9.842;2022-11-20T23:18:36;0.90;97.70
45849;DHT22;31567;54.600;9.842;2022-11-20T23:22:15;0.90;97.80
45849;DHT22;31567;54.600;9.842;2022-11-20T23:25:59;0.90;97.90
45849;DHT22;31567;54.600;9.842;2022-11-20T23:29:39;0.90;98.00
45849;DHT22;31567;54.600;9.842;2022-11-20T23:33:18;0.90;98.10
45849;DHT22;31567;54.600;9.842;2022-11-20T23:36:58;0.90;98.40
45849;DHT22;31567;54.600;9.842;2022-11-20T23:40:39;1.00;98.50
45849;DHT22;31567;54.600;9.842;2022-11-20T23:44:19;1.10;98.60
45849;DHT22;31567;54.600;9.842;2022-11-20T23:47:58;1.20;98.70
45849;DHT22;31567;54.600;9.842;2022-11-20T23:51:38;1.30;98.80
45849;DHT22;31567;54.600;9.842;2022-11-20T23:55:17;1.30;98.80
45849;DHT22;31567;54.600;9.842;2022-11-20T23:58:57;1.30;98.70
